sensor_id;sensor_type;location;lat;lon;timestamp;temperature;humidity
33067;DHT22;19428;49.024;8.366;2023-06-22T00:02:16;21.90;99.90
33067;DHT22;19428;49.024;8.366;2023-06-22T00:04:42;21.80;99.90
33067;DHT22;19428;49.024;8.366;2023-06-22T00:07:08;21.80;99.90
33067;DHT22;19428;49.024;8.366;2023-06-22T00:09:36;21.90;99.90
33067;DHT22;19428;49.024;8.366;2023-06-22T00:12:05;21.60;99.90
33067;DHT22;19428;49.024;8.366;2023-06-22T00:14:31;21.50;99.90
33067;DHT22;19428;49.024;8.366;2023-06-22T00:16:56;21.60;99.90
33067;DHT22;19428;49.024;8.366;2023-06-22T00:19:23;21.70;99.90
33067;DHT22;19428;49.024;8.366;2023-06-22T00:21:54;21.80;99.90
33067;DHT22;19428;49.024;8.366;2023-06-22T00:24:20;21.80;99.90
33067;DHT22;19428;49.024;8.366;2023-06-22T00:26:46;21.90;99.90
33067;DHT22;19428;49.024;8.366;2023-06-22T00:29:12;22.00;99.90
33067;DHT22;19428;49.024;8.366;2023-06-22T00:31:38;22.10;99.90
33067;DHT22;19428;49.024;8.366;2023-06-22T00:34:03;22.10;99.90
33067;DHT22;19428;49.024;8.366;2023-06-22T00:36:34;21.70;99.90
33067;DHT22;19428;49.024;8.366;2023-06-22T00:38:59;21.30;99.90
33067;DHT22;19428;49.024;8.366;2023-06-22T00:41:25;21.20;99.90
33067;DHT22;19428;49.024;8.366;2023-06-22T00:43:54;20.90;99.90
33067;DHT22;19428;49.024;8.366;2023-06-22T00:46:20;20.80;99.90
33067;DHT22;19428;49.024;8.366;2023-06-22T00:48:46;20.70;99.90
33067;DHT22;19428;49.024;8.366;2023-06-22T00:51:11;20.70;99.90
33067;DHT22;19428;49.024;8.366;2023-06-22T00:53:37;20.60;99.90
33067;DHT22;19428;49.024;8.366;2023-06-22T00:56:03;20.50;99.90
33067;DHT22;19428;49.024;8.366;2023-06-22T00:58:31;20.40;99.90
33067;DHT22;19428;49.024;8.366;2023-06-22T01:00:57;20.40;99.90
33067;DHT22;19428;49.024;8.366;2023-06-22T01:03:22;20.40;99.90
33067;DHT22;19428;49.024;8.366;2023-06-22T01:05:49;20.40;99.90
33067;DHT22;19428;49.024;8.366;2023-06-22T01:08:58;20.40;99.90
33067;DHT22;19428;49.024;8.366;2023-06-22T01:11:31;20.30;99.90
33067;DHT22;19428;49.024;8.366;2023-06-22T01:14:23;20.20;99.90
33067;DHT22;19428;49.024;8.366;2023-06-22T01:16:51;20.30;99.90
33067;DHT22;19428;49.024;8.366;2023-06-22T01:19:39;20.20;99.90
33067;DHT22;19428;49.024;8.366;2023-06-22T01:22:10;20.20;99.90
33067;DHT22;19428;49.024;8.366;2023-06-22T01:29:59;20.20;99.90
33067;DHT22;19428;49.024;8.366;2023-06-22T01:32:33;20.20;99.90
33067;DHT22;19428;49.024;8.366;2023-06-22T01:35:01;20.20;99.90
33067;DHT22;19428;49.024;8.366;2023-06-22T01:37:31;20.20;99.90
33067;DHT22;19428;49.024;8.366;2023-06-22T01:39:58;20.20;99.90
33067;DHT22;19428;49.024;8.366;2023-06-22T01:42:24;20.10;99.90
33067;DHT22;19428;49.024;8.366;2023-06-22T01:44:52;20.10;99.90
33067;DHT22;19428;49.024;8.366;2023-06-22T01:47:18;20.10;99.90
33067;DHT22;19428;49.024;8.366;2023-06-22T01:49:45;20.10;99.90
33067;DHT22;19428;49.024;8.366;2023-06-22T01:52:12;20.00;99.90
33067;DHT22;19428;49.024;8.366;2023-06-22T01:54:39;19.90;99.90
33067;DHT22;19428;49.024;8.366;2023-06-22T01:57:05;19.80;99.90
33067;DHT22;19428;49.024;8.366;2023-06-22T01:59:39;19.80;99.90
33067;DHT22;19428;49.024;8.366;2023-06-22T02:02:09;19.80;99.90
33067;DHT22;19428;49.024;8.366;2023-06-22T02:04:42;19.90;99.90
33067;DHT22;19428;49.024;8.366;2023-06-22T02:07:13;19.80;99.90
33067;DHT22;19428;49.024;8.366;2023-06-22T02:09:42;19.80;99.90
33067;DHT22;19428;49.024;8.366;2023-06-22T02:12:10;19.70;99.90
33067;DHT22;19428;49.024;8.366;2023-06-22T02:14:37;19.70;99.90
33067;DHT22;19428;49.024;8.366;2023-06-22T02:17:03;19.70;99.90
33067;DHT22;19428;49.024;8.366;2023-06-22T02:19:35;19.70;99.90
33067;DHT22;19428;49.024;8.366;2023-06-22T02:22:01;19.60;99.90
33067;DHT22;19428;49.024;8.366;2023-06-22T02:24:27;19.60;99.90
33067;DHT22;19428;49.024;8.366;2023-06-22T02:27:00;19.60;99.90
33067;DHT22;19428;49.024;8.366;2023-06-22T02:29:26;19.50;99.90
33067;DHT22;19428;49.024;8.366;2023-06-22T02:31:53;19.60;99.90
33067;DHT22;19428;49.024;8.366;2023-06-22T02:34:19;19.50;99.90
33067;DHT22;19428;49.024;8.366;2023-06-22T02:36:48;19.60;99.90
33067;DHT22;19428;49.024;8.366;2023-06-22T02:39:20;19.60;99.90
33067;DHT22;19428;49.024;8.366;2023-06-22T02:41:50;19.50;99.90
33067;DHT22;19428;49.024;8.366;2023-06-22T02:44:15;19.50;99.90
33067;DHT22;19428;49.024;8.366;2023-06-22T02:46:41;19.50;99.90
33067;DHT22;19428;49.024;8.366;2023-06-22T02:49:07;19.50;99.90
33067;DHT22;19428;49.024;8.366;2023-06-22T02:51:33;19.50;99.90
33067;DHT22;19428;49.024;8.366;2023-06-22T02:54:07;19.40;99.90
33067;DHT22;19428;49.024;8.366;2023-06-22T02:56:37;19.40;99.90
33067;DHT22;19428;49.024;8.366;2023-06-22T02:59:03;19.40;99.90
33067;DHT22;19428;49.024;8.366;2023-06-22T03:01:29;19.40;99.90
33067;DHT22;19428;49.024;8.366;2023-06-22T03:03:58;19.40;99.90
33067;DHT22;19428;49.024;8.366;2023-06-22T03:06:24;19.40;99.90
33067;DHT22;19428;49.024;8.366;2023-06-22T03:08:58;19.40;99.90
33067;DHT22;19428;49.024;8.366;2023-06-22T03:11:24;19.30;99.90
33067;DHT22;19428;49.024;8.366;2023-06-22T03:13:49;19.30;99.90
33067;DHT22;19428;49.024;8.366;2023-06-22T03:16:17;19.30;99.90
33067;DHT22;19428;49.024;8.366;2023-06-22T03:18:43;19.30;99.90
33067;DHT22;19428;49.024;8.366;2023-06-22T03:21:08;19.30;99.90
33067;DHT22;19428;49.024;8.366;2023-06-22T03:23:34;19.30;99.90
33067;DHT22;19428;49.024;8.366;2023-06-22T03:26:00;19.30;99.90
33067;DHT22;19428;49.024;8.366;2023-06-22T03:28:25;19.30;99.90
33067;DHT22;19428;49.024;8.366;2023-06-22T03:30:51;19.30;99.90
33067;DHT22;19428;49.024;8.366;2023-06-22T03:33:16;19.30;99.90
33067;DHT22;19428;49.024;8.366;2023-06-22T03:35:42;19.30;99.90
33067;DHT22;19428;49.024;8.366;2023-06-22T03:38:08;19.30;99.90
33067;DHT22;19428;49.024;8.366;2023-06-22T03:40:33;19.30;99.90
33067;DHT22;19428;49.024;8.366;2023-06-22T03:42:59;19.30;99.90
33067;DHT22;19428;49.024;8.366;2023-06-22T03:45:24;19.30;99.90
33067;DHT22;19428;49.024;8.366;2023-06-22T03:47:50;19.30;99.90
33067;DHT22;19428;49.024;8.366;2023-06-22T03:50:15;19.30;99.90
33067;DHT22;19428;49.024;8.366;2023-06-22T03:52:41;19.30;99.90
33067;DHT22;19428;49.024;8.366;2023-06-22T03:55:07;19.30;99.90
33067;DHT22;19428;49.024;8.366;2023-06-22T03:57:33;19.30;99.90
33067;DHT22;19428;49.024;8.366;2023-06-22T03:59:59;19.30;99.90
33067;DHT22;19428;49.024;8.366;2023-06-22T04:02:25;19.30;99.90
33067;DHT22;19428;49.024;8.366;2023-06-22T04:04:51;19.40;99.90
33067;DHT22;19428;49.024;8.366;2023-06-22T04:07:17;19.40;99.90
33067;DHT22;19428;49.024;8.366;2023-06-22T04:09:43;19.40;99.90
33067;DHT22;19428;49.024;8.366;2023-06-22T04:12:10;19.50;99.90
33067;DHT22;19428;49.024;8.366;2023-06-22T04:14:41;19.50;99.90
33067;DHT22;19428;49.024;8.366;2023-06-22T04:17:07;19.50;99.90
33067;DHT22;19428;49.024;8.366;2023-06-22T04:19:33;19.60;99.90
33067;DHT22;19428;49.024;8.366;2023-06-22T04:21:59;19.60;99.90
33067;DHT22;19428;49.024;8.366;2023-06-22T04:24:25;19.60;99.90
33067;DHT22;19428;49.024;8.366;2023-06-22T04:26:51;19.70;99.90
33067;DHT22;19428;49.024;8.366;2023-06-22T04:29:20;19.70;99.90
33067;DHT22;19428;49.024;8.366;2023-06-22T04:31:57;19.70;99.90
33067;DHT22;19428;49.024;8.366;2023-06-22T04:34:29;19.70;99.90
33067;DHT22;19428;49.024;8.366;2023-06-22T04:36:55;19.80;99.90
33067;DHT22;19428;49.024;8.366;2023-06-22T04:39:21;19.90;99.90
33067;DHT22;19428;49.024;8.366;2023-06-22T04:41:46;19.90;99.90
33067;DHT22;19428;49.024;8.366;2023-06-22T04:44:13;20.00;99.90
33067;DHT22;19428;49.024;8.366;2023-06-22T04:46:51;19.90;99.90
33067;DHT22;19428;49.024;8.366;2023-06-22T04:49:25;19.80;99.90
33067;DHT22;19428;49.024;8.366;2023-06-22T04:51:58;19.80;99.90
33067;DHT22;19428;49.024;8.366;2023-06-22T04:54:24;19.90;99.90
33067;DHT22;19428;49.024;8.366;2023-06-22T04:56:50;19.80;99.90
33067;DHT22;19428;49.024;8.366;2023-06-22T04:59:22;20.00;99.90
33067;DHT22;19428;49.024;8.366;2023-06-22T05:01:59;20.10;99.90
33067;DHT22;19428;49.024;8.366;2023-06-22T05:04:27;20.10;99.90
33067;DHT22;19428;49.024;8.366;2023-06-22T05:06:54;20.30;99.90
33067;DHT22;19428;49.024;8.366;2023-06-22T05:09:20;20.30;99.90
33067;DHT22;19428;49.024;8.366;2023-06-22T05:11:46;20.40;99.90
33067;DHT22;19428;49.024;8.366;2023-06-22T05:14:12;20.40;99.90
33067;DHT22;19428;49.024;8.366;2023-06-22T05:16:38;20.40;99.90
33067;DHT22;19428;49.024;8.366;2023-06-22T05:19:04;20.30;99.90
33067;DHT22;19428;49.024;8.366;2023-06-22T05:21:31;20.50;99.90
33067;DHT22;19428;49.024;8.366;2023-06-22T05:23:57;20.70;99.90
33067;DHT22;19428;49.024;8.366;2023-06-22T05:26:26;20.80;99.90
33067;DHT22;19428;49.024;8.366;2023-06-22T05:28:52;20.70;99.90
33067;DHT22;19428;49.024;8.366;2023-06-22T05:31:18;20.70;99.90
33067;DHT22;19428;49.024;8.366;2023-06-22T05:33:48;21.10;99.90
33067;DHT22;19428;49.024;8.366;2023-06-22T05:36:14;20.90;99.90
33067;DHT22;19428;49.024;8.366;2023-06-22T05:38:41;20.80;99.90
33067;DHT22;19428;49.024;8.366;2023-06-22T05:41:07;21.00;99.90
33067;DHT22;19428;49.024;8.366;2023-06-22T05:43:33;21.00;99.90
33067;DHT22;19428;49.024;8.366;2023-06-22T05:46:00;21.10;99.90
33067;DHT22;19428;49.024;8.366;2023-06-22T05:48:26;21.50;99.90
33067;DHT22;19428;49.024;8.366;2023-06-22T05:50:52;21.10;99.90
33067;DHT22;19428;49.024;8.366;2023-06-22T05:53:18;21.30;99.90
33067;DHT22;19428;49.024;8.366;2023-06-22T05:55:44;21.30;99.90
33067;DHT22;19428;49.024;8.366;2023-06-22T05:58:10;21.20;99.90
33067;DHT22;19428;49.024;8.366;2023-06-22T06:00:35;21.30;99.90
33067;DHT22;19428;49.024;8.366;2023-06-22T06:03:01;21.40;99.90
33067;DHT22;19428;49.024;8.366;2023-06-22T06:05:31;21.30;99.90
33067;DHT22;19428;49.024;8.366;2023-06-22T06:07:56;21.50;99.90
33067;DHT22;19428;49.024;8.366;2023-06-22T06:10:22;21.50;99.90
33067;DHT22;19428;49.024;8.366;2023-06-22T06:12:48;21.70;99.90
33067;DHT22;19428;49.024;8.366;2023-06-22T06:15:13;22.00;99.90
33067;DHT22;19428;49.024;8.366;2023-06-22T06:17:49;22.10;99.90
33067;DHT22;19428;49.024;8.366;2023-06-22T06:20:19;21.90;99.90
33067;DHT22;19428;49.024;8.366;2023-06-22T06:22:45;22.20;99.90
33067;DHT22;19428;49.024;8.366;2023-06-22T06:25:11;22.00;99.90
33067;DHT22;19428;49.024;8.366;2023-06-22T06:27:42;22.10;99.90
33067;DHT22;19428;49.024;8.366;2023-06-22T06:30:08;22.60;99.90
33067;DHT22;19428;49.024;8.366;2023-06-22T06:32:33;22.70;99.90
33067;DHT22;19428;49.024;8.366;2023-06-22T06:34:59;22.90;99.90
33067;DHT22;19428;49.024;8.366;2023-06-22T06:37:24;22.60;99.90
33067;DHT22;19428;49.024;8.366;2023-06-22T06:39:50;23.00;99.90
33067;DHT22;19428;49.024;8.366;2023-06-22T06:42:16;23.30;99.90
33067;DHT22;19428;49.024;8.366;2023-06-22T06:44:41;23.10;99.90
33067;DHT22;19428;49.024;8.366;2023-06-22T06:47:07;23.00;99.90
33067;DHT22;19428;49.024;8.366;2023-06-22T06:49:33;23.10;99.90
33067;DHT22;19428;49.024;8.366;2023-06-22T06:51:59;23.30;99.90
33067;DHT22;19428;49.024;8.366;2023-06-22T06:54:24;23.30;99.90
33067;DHT22;19428;49.024;8.366;2023-06-22T06:56:50;23.20;99.90
33067;DHT22;19428;49.024;8.366;2023-06-22T06:59:15;23.10;99.90
33067;DHT22;19428;49.024;8.366;2023-06-22T07:01:42;23.40;99.90
33067;DHT22;19428;49.024;8.366;2023-06-22T07:04:10;23.60;99.90
33067;DHT22;19428;49.024;8.366;2023-06-22T07:06:36;23.40;99.90
33067;DHT22;19428;49.024;8.366;2023-06-22T07:09:03;23.40;99.90
33067;DHT22;19428;49.024;8.366;2023-06-22T07:11:29;23.40;99.90
33067;DHT22;19428;49.024;8.366;2023-06-22T07:13:54;24.00;99.90
33067;DHT22;19428;49.024;8.366;2023-06-22T07:16:20;24.20;99.90
33067;DHT22;19428;49.024;8.366;2023-06-22T07:18:46;24.10;99.90
33067;DHT22;19428;49.024;8.366;2023-06-22T07:21:11;24.20;99.90
33067;DHT22;19428;49.024;8.366;2023-06-22T07:23:37;23.90;99.90
33067;DHT22;19428;49.024;8.366;2023-06-22T07:26:03;24.20;99.90
33067;DHT22;19428;49.024;8.366;2023-06-22T07:28:28;24.30;99.90
33067;DHT22;19428;49.024;8.366;2023-06-22T07:31:02;24.90;99.90
33067;DHT22;19428;49.024;8.366;2023-06-22T07:33:29;25.30;99.90
33067;DHT22;19428;49.024;8.366;2023-06-22T07:35:55;25.30;99.90
33067;DHT22;19428;49.024;8.366;2023-06-22T07:38:20;24.90;99.90
33067;DHT22;19428;49.024;8.366;2023-06-22T07:40:46;25.00;99.90
33067;DHT22;19428;49.024;8.366;2023-06-22T07:43:12;25.00;99.90
33067;DHT22;19428;49.024;8.366;2023-06-22T07:45:39;25.20;99.90
33067;DHT22;19428;49.024;8.366;2023-06-22T07:48:06;25.50;99.90
33067;DHT22;19428;49.024;8.366;2023-06-22T07:50:32;25.20;99.90
33067;DHT22;19428;49.024;8.366;2023-06-22T07:52:57;25.40;99.90
33067;DHT22;19428;49.024;8.366;2023-06-22T07:55:23;25.90;99.90
33067;DHT22;19428;49.024;8.366;2023-06-22T07:57:49;25.90;99.90
33067;DHT22;19428;49.024;8.366;2023-06-22T08:00:17;26.50;99.90
33067;DHT22;19428;49.024;8.366;2023-06-22T08:02:44;26.20;99.90
33067;DHT22;19428;49.024;8.366;2023-06-22T08:05:10;25.70;99.90
33067;DHT22;19428;49.024;8.366;2023-06-22T08:07:37;25.90;97.70
33067;DHT22;19428;49.024;8.366;2023-06-22T08:10:03;25.90;95.30
33067;DHT22;19428;49.024;8.366;2023-06-22T08:12:29;25.90;97.30
33067;DHT22;19428;49.024;8.366;2023-06-22T08:14:55;26.00;96.50
33067;DHT22;19428;49.024;8.366;2023-06-22T08:17:22;26.20;96.00
33067;DHT22;19428;49.024;8.366;2023-06-22T08:19:48;26.30;94.10
33067;DHT22;19428;49.024;8.366;2023-06-22T08:22:15;26.30;90.60
33067;DHT22;19428;49.024;8.366;2023-06-22T08:24:40;26.60;88.60
33067;DHT22;19428;49.024;8.366;2023-06-22T08:27:07;27.20;85.00
33067;DHT22;19428;49.024;8.366;2023-06-22T08:29:34;26.90;77.80
33067;DHT22;19428;49.024;8.366;2023-06-22T08:32:00;26.80;74.70
33067;DHT22;19428;49.024;8.366;2023-06-22T08:34:26;27.30;75.20
33067;DHT22;19428;49.024;8.366;2023-06-22T08:36:55;27.50;75.30
33067;DHT22;19428;49.024;8.366;2023-06-22T08:39:21;27.60;68.90
33067;DHT22;19428;49.024;8.366;2023-06-22T08:41:49;27.70;68.30
33067;DHT22;19428;49.024;8.366;2023-06-22T08:44:18;27.60;68.10
33067;DHT22;19428;49.024;8.366;2023-06-22T08:46:44;27.80;67.00
33067;DHT22;19428;49.024;8.366;2023-06-22T08:49:09;27.30;64.30
33067;DHT22;19428;49.024;8.366;2023-06-22T08:51:35;27.40;65.90
33067;DHT22;19428;49.024;8.366;2023-06-22T08:54:01;27.40;63.90
33067;DHT22;19428;49.024;8.366;2023-06-22T08:56:26;27.70;64.70
33067;DHT22;19428;49.024;8.366;2023-06-22T08:58:52;28.00;60.80
33067;DHT22;19428;49.024;8.366;2023-06-22T09:01:17;28.20;57.90
33067;DHT22;19428;49.024;8.366;2023-06-22T09:03:44;28.00;59.90
33067;DHT22;19428;49.024;8.366;2023-06-22T09:06:19;27.80;58.70
33067;DHT22;19428;49.024;8.366;2023-06-22T09:08:45;28.40;60.40
33067;DHT22;19428;49.024;8.366;2023-06-22T09:11:11;28.50;57.90
33067;DHT22;19428;49.024;8.366;2023-06-22T09:13:37;28.10;55.40
33067;DHT22;19428;49.024;8.366;2023-06-22T09:16:02;28.30;56.30
33067;DHT22;19428;49.024;8.366;2023-06-22T09:18:28;28.40;55.00
33067;DHT22;19428;49.024;8.366;2023-06-22T09:20:53;28.80;53.90
33067;DHT22;19428;49.024;8.366;2023-06-22T09:23:19;28.50;53.60
33067;DHT22;19428;49.024;8.366;2023-06-22T09:25:45;28.60;52.80
33067;DHT22;19428;49.024;8.366;2023-06-22T09:28:12;28.60;50.60
33067;DHT22;19428;49.024;8.366;2023-06-22T09:30:38;28.70;53.30
33067;DHT22;19428;49.024;8.366;2023-06-22T09:33:03;28.40;51.70
33067;DHT22;19428;49.024;8.366;2023-06-22T09:35:29;28.70;47.30
33067;DHT22;19428;49.024;8.366;2023-06-22T09:37:54;28.70;49.80
33067;DHT22;19428;49.024;8.366;2023-06-22T09:40:20;28.70;50.20
33067;DHT22;19428;49.024;8.366;2023-06-22T09:42:45;28.60;49.20
33067;DHT22;19428;49.024;8.366;2023-06-22T09:45:11;28.40;49.10
33067;DHT22;19428;49.024;8.366;2023-06-22T09:47:37;28.80;50.20
33067;DHT22;19428;49.024;8.366;2023-06-22T09:50:03;29.20;48.50
33067;DHT22;19428;49.024;8.366;2023-06-22T09:52:28;28.90;43.80
33067;DHT22;19428;49.024;8.366;2023-06-22T09:54:54;29.20;46.30
33067;DHT22;19428;49.024;8.366;2023-06-22T09:57:19;29.20;46.50
33067;DHT22;19428;49.024;8.366;2023-06-22T09:59:45;29.50;44.80
33067;DHT22;19428;49.024;8.366;2023-06-22T10:02:11;28.90;44.50
33067;DHT22;19428;49.024;8.366;2023-06-22T10:04:36;28.70;45.80
33067;DHT22;19428;49.024;8.366;2023-06-22T10:07:02;28.70;47.00
33067;DHT22;19428;49.024;8.366;2023-06-22T10:09:28;28.60;45.70
33067;DHT22;19428;49.024;8.366;2023-06-22T10:11:54;28.30;46.00
33067;DHT22;19428;49.024;8.366;2023-06-22T10:14:19;28.20;45.70
33067;DHT22;19428;49.024;8.366;2023-06-22T10:16:45;28.20;45.80
33067;DHT22;19428;49.024;8.366;2023-06-22T10:19:11;28.70;45.50
33067;DHT22;19428;49.024;8.366;2023-06-22T10:21:36;29.10;44.00
33067;DHT22;19428;49.024;8.366;2023-06-22T10:24:02;29.50;43.60
33067;DHT22;19428;49.024;8.366;2023-06-22T10:26:35;29.50;42.70
33067;DHT22;19428;49.024;8.366;2023-06-22T10:29:01;29.40;41.10
33067;DHT22;19428;49.024;8.366;2023-06-22T10:31:27;29.20;42.40
33067;DHT22;19428;49.024;8.366;2023-06-22T10:33:53;29.50;43.40
33067;DHT22;19428;49.024;8.366;2023-06-22T10:36:19;29.60;43.60
33067;DHT22;19428;49.024;8.366;2023-06-22T10:38:45;28.90;40.00
33067;DHT22;19428;49.024;8.366;2023-06-22T10:41:12;28.90;42.30
33067;DHT22;19428;49.024;8.366;2023-06-22T10:43:38;29.30;41.60
33067;DHT22;19428;49.024;8.366;2023-06-22T10:46:03;29.60;41.20
33067;DHT22;19428;49.024;8.366;2023-06-22T10:48:29;29.30;40.40
33067;DHT22;19428;49.024;8.366;2023-06-22T10:50:55;28.80;40.40
33067;DHT22;19428;49.024;8.366;2023-06-22T10:53:20;28.80;40.90
33067;DHT22;19428;49.024;8.366;2023-06-22T10:55:47;28.80;41.30
33067;DHT22;19428;49.024;8.366;2023-06-22T10:58:12;28.90;42.60
33067;DHT22;19428;49.024;8.366;2023-06-22T11:00:38;28.80;40.10
33067;DHT22;19428;49.024;8.366;2023-06-22T11:03:03;29.40;41.30
33067;DHT22;19428;49.024;8.366;2023-06-22T11:05:29;30.20;39.80
33067;DHT22;19428;49.024;8.366;2023-06-22T11:07:55;30.30;37.90
33067;DHT22;19428;49.024;8.366;2023-06-22T11:10:20;30.10;37.40
33067;DHT22;19428;49.024;8.366;2023-06-22T11:12:46;30.10;37.00
33067;DHT22;19428;49.024;8.366;2023-06-22T11:15:11;30.10;36.10
33067;DHT22;19428;49.024;8.366;2023-06-22T11:17:37;30.10;39.70
33067;DHT22;19428;49.024;8.366;2023-06-22T11:20:03;30.10;36.20
33067;DHT22;19428;49.024;8.366;2023-06-22T11:22:39;30.10;37.40
33067;DHT22;19428;49.024;8.366;2023-06-22T11:25:05;30.80;36.70
33067;DHT22;19428;49.024;8.366;2023-06-22T11:27:31;30.50;32.10
33067;DHT22;19428;49.024;8.366;2023-06-22T11:29:56;30.40;35.60
33067;DHT22;19428;49.024;8.366;2023-06-22T11:32:22;30.80;35.00
33067;DHT22;19428;49.024;8.366;2023-06-22T11:34:48;30.90;32.80
33067;DHT22;19428;49.024;8.366;2023-06-22T11:37:13;30.50;30.60
33067;DHT22;19428;49.024;8.366;2023-06-22T11:39:40;30.40;33.50
33067;DHT22;19428;49.024;8.366;2023-06-22T11:42:06;30.20;32.80
33067;DHT22;19428;49.024;8.366;2023-06-22T11:44:32;30.30;32.90
33067;DHT22;19428;49.024;8.366;2023-06-22T11:46:57;30.00;33.60
33067;DHT22;19428;49.024;8.366;2023-06-22T11:49:23;29.80;34.10
33067;DHT22;19428;49.024;8.366;2023-06-22T11:51:49;29.80;34.80
33067;DHT22;19428;49.024;8.366;2023-06-22T11:54:14;29.90;32.30
33067;DHT22;19428;49.024;8.366;2023-06-22T11:56:40;30.30;33.80
33067;DHT22;19428;49.024;8.366;2023-06-22T11:59:05;30.90;29.50
33067;DHT22;19428;49.024;8.366;2023-06-22T12:01:31;30.90;31.00
33067;DHT22;19428;49.024;8.366;2023-06-22T12:03:58;31.20;29.10
33067;DHT22;19428;49.024;8.366;2023-06-22T12:06:24;31.10;27.90
33067;DHT22;19428;49.024;8.366;2023-06-22T12:08:50;30.90;29.40
33067;DHT22;19428;49.024;8.366;2023-06-22T12:11:15;31.80;28.00
33067;DHT22;19428;49.024;8.366;2023-06-22T12:13:41;31.90;28.30
33067;DHT22;19428;49.024;8.366;2023-06-22T12:16:06;31.70;28.30
33067;DHT22;19428;49.024;8.366;2023-06-22T12:18:32;32.30;26.60
33067;DHT22;19428;49.024;8.366;2023-06-22T12:20:58;32.90;26.30
33067;DHT22;19428;49.024;8.366;2023-06-22T12:23:23;32.80;23.20
33067;DHT22;19428;49.024;8.366;2023-06-22T12:25:49;32.50;23.70
33067;DHT22;19428;49.024;8.366;2023-06-22T12:28:14;32.90;24.60
33067;DHT22;19428;49.024;8.366;2023-06-22T12:30:40;33.50;24.20
33067;DHT22;19428;49.024;8.366;2023-06-22T12:33:06;33.40;21.20
33067;DHT22;19428;49.024;8.366;2023-06-22T12:35:31;32.90;23.20
33067;DHT22;19428;49.024;8.366;2023-06-22T12:37:58;32.20;22.80
33067;DHT22;19428;49.024;8.366;2023-06-22T12:40:23;32.40;23.00
33067;DHT22;19428;49.024;8.366;2023-06-22T12:42:49;31.30;22.80
33067;DHT22;19428;49.024;8.366;2023-06-22T12:45:15;31.30;24.10
33067;DHT22;19428;49.024;8.366;2023-06-22T12:47:40;31.80;24.30
33067;DHT22;19428;49.024;8.366;2023-06-22T12:50:06;31.10;28.00
33067;DHT22;19428;49.024;8.366;2023-06-22T12:52:32;31.40;28.10
33067;DHT22;19428;49.024;8.366;2023-06-22T12:54:58;31.50;27.10
33067;DHT22;19428;49.024;8.366;2023-06-22T12:57:23;31.50;27.20
33067;DHT22;19428;49.024;8.366;2023-06-22T12:59:49;31.80;26.10
33067;DHT22;19428;49.024;8.366;2023-06-22T13:02:14;31.60;26.50
33067;DHT22;19428;49.024;8.366;2023-06-22T13:04:40;31.00;27.40
33067;DHT22;19428;49.024;8.366;2023-06-22T13:07:06;30.80;28.70
33067;DHT22;19428;49.024;8.366;2023-06-22T13:09:31;30.50;29.10
33067;DHT22;19428;49.024;8.366;2023-06-22T13:11:59;30.90;29.70
33067;DHT22;19428;49.024;8.366;2023-06-22T13:14:25;31.00;28.80
33067;DHT22;19428;49.024;8.366;2023-06-22T13:16:50;30.50;29.50
33067;DHT22;19428;49.024;8.366;2023-06-22T13:19:16;31.10;28.80
33067;DHT22;19428;49.024;8.366;2023-06-22T13:21:41;32.10;27.00
33067;DHT22;19428;49.024;8.366;2023-06-22T13:24:07;32.20;27.20
33067;DHT22;19428;49.024;8.366;2023-06-22T13:26:33;32.30;25.70
33067;DHT22;19428;49.024;8.366;2023-06-22T13:28:58;31.20;27.00
33067;DHT22;19428;49.024;8.366;2023-06-22T13:31:24;31.10;28.50
33067;DHT22;19428;49.024;8.366;2023-06-22T13:33:50;31.20;27.20
33067;DHT22;19428;49.024;8.366;2023-06-22T13:36:17;30.70;25.80
33067;DHT22;19428;49.024;8.366;2023-06-22T13:38:43;30.90;24.20
33067;DHT22;19428;49.024;8.366;2023-06-22T13:41:08;31.10;23.80
33067;DHT22;19428;49.024;8.366;2023-06-22T13:43:34;30.80;23.00
33067;DHT22;19428;49.024;8.366;2023-06-22T13:46:00;30.60;25.50
33067;DHT22;19428;49.024;8.366;2023-06-22T13:48:25;30.40;25.50
33067;DHT22;19428;49.024;8.366;2023-06-22T13:50:51;30.90;23.80
33067;DHT22;19428;49.024;8.366;2023-06-22T13:53:17;30.60;24.90
33067;DHT22;19428;49.024;8.366;2023-06-22T13:55:43;31.00;25.60
33067;DHT22;19428;49.024;8.366;2023-06-22T13:58:08;31.30;24.10
33067;DHT22;19428;49.024;8.366;2023-06-22T14:00:34;30.20;24.80
33067;DHT22;19428;49.024;8.366;2023-06-22T14:02:59;29.80;25.20
33067;DHT22;19428;49.024;8.366;2023-06-22T14:05:25;29.50;25.10
33067;DHT22;19428;49.024;8.366;2023-06-22T14:07:51;29.50;25.60
33067;DHT22;19428;49.024;8.366;2023-06-22T14:10:17;29.50;25.90
33067;DHT22;19428;49.024;8.366;2023-06-22T14:12:43;29.50;27.60
33067;DHT22;19428;49.024;8.366;2023-06-22T14:15:08;29.20;26.80
33067;DHT22;19428;49.024;8.366;2023-06-22T14:17:34;29.10;27.90
33067;DHT22;19428;49.024;8.366;2023-06-22T14:20:00;29.00;28.40
33067;DHT22;19428;49.024;8.366;2023-06-22T14:22:25;29.00;29.00
33067;DHT22;19428;49.024;8.366;2023-06-22T14:24:54;28.90;29.60
33067;DHT22;19428;49.024;8.366;2023-06-22T14:27:21;28.80;29.70
33067;DHT22;19428;49.024;8.366;2023-06-22T14:29:47;28.80;30.90
33067;DHT22;19428;49.024;8.366;2023-06-22T14:32:12;28.70;29.60
33067;DHT22;19428;49.024;8.366;2023-06-22T14:34:38;28.80;29.80
33067;DHT22;19428;49.024;8.366;2023-06-22T14:37:10;29.00;30.30
33067;DHT22;19428;49.024;8.366;2023-06-22T14:39:36;28.80;30.10
33067;DHT22;19428;49.024;8.366;2023-06-22T14:42:02;29.00;30.40
33067;DHT22;19428;49.024;8.366;2023-06-22T14:44:29;29.40;30.50
33067;DHT22;19428;49.024;8.366;2023-06-22T14:46:55;29.40;31.50
33067;DHT22;19428;49.024;8.366;2023-06-22T14:49:21;29.60;30.20
33067;DHT22;19428;49.024;8.366;2023-06-22T14:51:46;29.60;31.10
33067;DHT22;19428;49.024;8.366;2023-06-22T14:54:12;29.90;31.10
33067;DHT22;19428;49.024;8.366;2023-06-22T14:56:38;29.90;29.00
33067;DHT22;19428;49.024;8.366;2023-06-22T14:59:03;30.40;30.00
33067;DHT22;19428;49.024;8.366;2023-06-22T15:01:29;30.90;29.60
33067;DHT22;19428;49.024;8.366;2023-06-22T15:03:55;30.90;28.70
33067;DHT22;19428;49.024;8.366;2023-06-22T15:06:21;30.40;28.90
33067;DHT22;19428;49.024;8.366;2023-06-22T15:08:46;30.80;32.20
33067;DHT22;19428;49.024;8.366;2023-06-22T15:11:12;30.40;29.80
33067;DHT22;19428;49.024;8.366;2023-06-22T15:13:41;30.40;32.00
33067;DHT22;19428;49.024;8.366;2023-06-22T15:16:07;30.00;33.50
33067;DHT22;19428;49.024;8.366;2023-06-22T15:18:33;30.90;32.50
33067;DHT22;19428;49.024;8.366;2023-06-22T15:21:00;30.80;33.30
33067;DHT22;19428;49.024;8.366;2023-06-22T15:23:27;30.50;33.10
33067;DHT22;19428;49.024;8.366;2023-06-22T15:25:54;30.70;31.10
33067;DHT22;19428;49.024;8.366;2023-06-22T15:28:20;30.60;29.20
33067;DHT22;19428;49.024;8.366;2023-06-22T15:30:47;30.70;26.60
33067;DHT22;19428;49.024;8.366;2023-06-22T15:33:13;30.90;25.60